Kiowa, Colorado
Current Conditions -  °F | °C
As of 1:52 AM on Sunday 26 Oct 2014 (Local Time) from KMNH Reporting Station
Clear Clear  
Wind Chill: 52°   Ceiling: Unl
Heat Index: 52°   Visibility: 10mi
Dew Point: 23°   Wind: 12mph
Humidity: 33%   Direction: 230°SW
Pressure: 30.06"   Gusts: NA
Location:  39.35°N, 104.46°W
Report Text: KMNH 260752Z AUTO 23010KT 10SM CLR 11/M05 A3006 RMK AO2
Loading
Personal Weather Stations






























Interactive Weather Map
Tropical Storm Tracking
New forecast layout! Learn more

10-Day Weather Forecast

Advertisements
Track Severe Weather on mobile